Glens Falls, NY (12801)

23:09 EDT le 31 Mars 2015 (GMT -0400)
The White House | | Change Station
CLOSE
Current Station
Stations météorologiques personnelles
Location: South Glens Falls, NY
Altitude: 344 ft
Stations météo à proximité

Alt. 344 ft 43.27 °N, 73.65 °W | Updated 6 seconds ago

Clear
Ciel dégagé
31.0 ° F
Paraît 31 ° F
N
0.0
Vent Variable Vent de Nord
Gusts 1.0 mph

Aujourd'hui
Haut(e) -- | Bas -- ° F
--% Risque de précip.
Hier
Haut(e) -- | Bas -- ° F
Precip. -- pouce
6:38 AM 7:19 PM
Lune gibbeuse croissante, 90% visible
Pression 29.87 pouce
Visibilité 10.0 Miles terrestres
Nuages Ciel dégagé
Refroidissement éolien 31 ° F
Point de rosée 11 ° F
Humidité 44%
Précipitations 0.00 pouce
Profondeur de la couche neigeuse Non disponible.
UV 0 sur 12
Pollen 4.90 sur 12
Qualité de l'air Non disponible.
Flu Activity Non disponible.
METAR KGFL 010253Z AUTO 34005KT 10SM CLR M01/M12 A2984 RMK AO2 SLP113 T10111122 51025

More Conditions Fewer Conditions

Pression 29.87 pouce
Visibilité 10.0 Miles terrestres
Nuages Ciel dégagé
Refroidissement éolien 31 ° F
Point de rosée 11 ° F
Humidité 44%
Précipitations 0.00 pouce
Profondeur de la couche neigeuse Non disponible.
UV 0 sur 12
Pollen 4.90 sur 12
Qualité de l'air Non disponible.
Flu Activity Non disponible.
METAR KGFL 010253Z AUTO 34005KT 10SM CLR M01/M12 A2984 RMK AO2 SLP113 T10111122 51025

More Conditions Fewer Conditions

10-Day Weather Forecast

Almanac

Astronomie

Mar. 31, 2015 Lever Coucher
Temps réel
Crépuscule civil
Crépuscule nautique
Crépuscule astronomique
Lune
Durée de lumière visible
Longueur du jour
Tomorrow will be .
, % of the Moon is Illuminated

Extrêmes aujourd'hui

State Highs State Lows

Community

WunderPhotos

Upload Photos

1,809,888 Photos téléchargées !

WunderBlogs® & News

Nearby

Qualité de l'air

  Qualité de l'air Indice de la qualité de l'air Polluant
Not available.

Épaisseur de neige

Station Depth Altitude

Activité sismique

Ville Distance Mag. Time & Date
Minimum magnitude displayed is 2.5.

Températures des eaux côtières

Lieu Température

Stations

Stations météo à proximité

Emplacement de la station Température Refroidissement éolien Point de rosée Humidité Vent Precip. Alt. Mise à jour Type